createdAt,value
2019-04-26T00:00:12.347Z,4.07
2019-04-26T00:02:41.938Z,4.07
2019-04-26T00:05:10.250Z,4.43
2019-04-26T00:07:38.127Z,4.40
2019-04-26T00:10:07.522Z,4.47
2019-04-26T00:12:39.653Z,3.87
2019-04-26T00:15:20.941Z,4.10
2019-04-26T00:17:53.207Z,4.00
2019-04-26T00:20:21.127Z,3.90
2019-04-26T00:22:48.619Z,4.17
2019-04-26T00:25:16.520Z,4.00
2019-04-26T00:27:44.135Z,5.07
2019-04-26T00:30:13.055Z,4.33
2019-04-26T00:32:40.537Z,4.17
2019-04-26T00:35:07.937Z,4.50
2019-04-26T00:37:35.342Z,4.20
2019-04-26T00:40:02.710Z,4.50
2019-04-26T00:42:30.610Z,4.43
2019-04-26T00:44:58.077Z,5.10
2019-04-26T00:47:25.930Z,4.77
2019-04-26T00:49:53.329Z,4.20
2019-04-26T00:52:21.627Z,4.70
2019-04-26T00:54:49.054Z,4.77
2019-04-26T00:57:18.221Z,4.73
2019-04-26T00:59:46.030Z,4.37
2019-04-26T01:02:15.321Z,4.87
2019-04-26T01:04:43.846Z,5.17
2019-04-26T01:07:11.229Z,4.47
2019-04-26T01:09:38.588Z,5.07
2019-04-26T01:12:05.986Z,4.57
2019-04-26T01:14:33.333Z,4.50
2019-04-26T01:17:01.076Z,4.40
2019-04-26T01:19:29.030Z,4.87
2019-04-26T01:21:58.020Z,4.80
2019-04-26T01:24:27.307Z,4.70
2019-04-26T01:26:56.311Z,4.40
2019-04-26T01:29:25.932Z,4.90
2019-04-26T01:32:04.213Z,4.97
2019-04-26T01:34:32.025Z,4.93
2019-04-26T01:37:00.481Z,5.10
2019-04-26T01:39:28.019Z,6.00
2019-04-26T01:42:12.060Z,4.80
2019-04-26T01:45:01.487Z,5.33
2019-04-26T01:47:28.939Z,5.67
2019-04-26T01:49:56.421Z,5.10
2019-04-26T01:52:24.126Z,5.93
2019-04-26T01:54:51.559Z,5.07
2019-04-26T01:57:20.917Z,5.57
2019-04-26T01:59:52.982Z,5.37
2019-04-26T02:02:25.615Z,6.00
2019-04-26T02:05:07.639Z,5.70
2019-04-26T02:07:38.118Z,5.57
2019-04-26T02:10:13.052Z,5.47
2019-04-26T02:12:41.978Z,6.30
2019-04-26T02:15:09.523Z,5.97
2019-04-26T02:17:37.022Z,6.27
2019-04-26T02:20:05.535Z,6.33
2019-04-26T02:22:34.897Z,5.90
2019-04-26T02:25:02.472Z,6.40
2019-04-26T02:27:31.032Z,6.50
2019-04-26T02:29:59.529Z,6.47
2019-04-26T02:32:28.909Z,6.07
2019-04-26T02:34:56.350Z,6.80
2019-04-26T02:37:23.830Z,6.43
2019-04-26T02:39:51.834Z,6.57
2019-04-26T02:42:28.688Z,6.60
2019-04-26T02:44:59.919Z,6.27
2019-04-26T02:47:43.016Z,7.00
2019-04-26T02:50:31.208Z,7.30
2019-04-26T02:53:06.450Z,7.43
2019-04-26T02:55:41.833Z,7.00
2019-04-26T02:58:04.974Z,7.80
2019-04-26T03:00:33.913Z,7.77
2019-04-26T03:03:03.388Z,7.03
2019-04-26T03:05:34.152Z,7.03
2019-04-26T03:08:02.515Z,6.93
2019-04-26T03:10:34.093Z,7.53
2019-04-26T03:13:02.499Z,8.37
2019-04-26T03:15:48.044Z,6.87
2019-04-26T03:18:37.427Z,8.40
2019-04-26T03:21:24.146Z,7.40
2019-04-26T03:23:58.441Z,7.77
2019-04-26T03:26:23.794Z,7.07
2019-04-26T03:29:09.523Z,7.93
2019-04-26T03:31:55.243Z,8.53
2019-04-26T03:34:28.270Z,7.80
2019-04-26T03:37:27.665Z,8.50
2019-04-26T03:40:12.490Z,8.90
2019-04-26T03:42:44.293Z,8.73
2019-04-26T03:45:19.301Z,7.83
2019-04-26T03:47:48.293Z,8.00
2019-04-26T03:50:29.243Z,8.67
2019-04-26T03:53:01.658Z,8.47
2019-04-26T03:55:32.214Z,8.23
2019-04-26T03:58:05.571Z,9.63
2019-04-26T04:00:39.546Z,9.33
2019-04-26T04:03:13.863Z,9.23
2019-04-26T04:05:46.056Z,9.40
2019-04-26T04:08:15.085Z,11.20
2019-04-26T04:10:45.567Z,9.10
2019-04-26T04:13:19.277Z,9.73
2019-04-26T04:15:48.500Z,10.13
2019-04-26T04:18:19.224Z,9.03
2019-04-26T04:20:55.411Z,10.60
2019-04-26T04:23:24.390Z,10.17
2019-04-26T04:25:52.637Z,10.20
2019-04-26T04:28:30.275Z,10.10
2019-04-26T04:31:02.160Z,9.80
2019-04-26T04:33:31.070Z,9.47
2019-04-26T04:36:00.064Z,10.63
2019-04-26T04:38:46.405Z,9.57
2019-04-26T04:41:20.857Z,10.13
2019-04-26T04:44:00.190Z,10.20
2019-04-26T04:46:30.853Z,10.07
2019-04-26T04:49:01.487Z,9.90
2019-04-26T04:51:36.283Z,9.47
2019-04-26T04:54:17.268Z,10.20
2019-04-26T04:56:46.282Z,12.63
2019-04-26T04:59:24.191Z,10.20
2019-04-26T05:02:10.889Z,10.23
2019-04-26T05:04:39.830Z,10.07
2019-04-26T05:07:10.379Z,10.03
2019-04-26T05:09:39.312Z,10.63
2019-04-26T05:12:08.278Z,12.47
2019-04-26T05:14:50.139Z,13.07
2019-04-26T05:17:28.098Z,11.07
2019-04-26T05:20:03.008Z,9.60
2019-04-26T05:22:44.730Z,11.23
2019-04-26T05:25:43.479Z,9.53
2019-04-26T05:28:20.009Z,10.90
2019-04-26T05:31:06.684Z,10.10
2019-04-26T05:33:41.709Z,11.03
2019-04-26T05:36:17.662Z,11.10
2019-04-26T05:38:53.258Z,10.80
2019-04-26T05:41:35.954Z,10.50
2019-04-26T05:44:21.741Z,11.80
2019-04-26T05:47:15.339Z,11.77
2019-04-26T05:50:06.993Z,11.20
2019-04-26T05:52:55.177Z,11.43
2019-04-26T05:55:40.808Z,10.33
2019-04-26T05:58:18.701Z,11.07
2019-04-26T06:01:01.956Z,11.40
2019-04-26T06:03:49.832Z,10.67
2019-04-26T06:06:21.464Z,12.10
2019-04-26T06:08:55.320Z,10.17
2019-04-26T06:11:31.869Z,11.00
2019-04-26T06:14:28.161Z,13.03
2019-04-26T06:17:01.719Z,11.23
2019-04-26T06:19:53.205Z,10.77
2019-04-26T06:22:22.322Z,11.10
2019-04-26T06:25:07.847Z,10.23
2019-04-26T06:27:44.224Z,10.27
2019-04-26T06:30:13.159Z,11.20
2019-04-26T06:32:42.212Z,11.70
2019-04-26T06:35:11.287Z,11.93
2019-04-26T06:37:57.329Z,10.93
2019-04-26T06:40:26.445Z,10.10
2019-04-26T06:43:02.761Z,10.73
2019-04-26T06:45:39.283Z,10.40
2019-04-26T06:48:21.780Z,10.33
2019-04-26T06:50:53.388Z,11.80
2019-04-26T06:53:34.627Z,11.67
2019-04-26T06:56:21.715Z,9.27
2019-04-26T06:58:59.849Z,9.30
2019-04-26T07:01:28.834Z,9.97
2019-04-26T07:03:58.340Z,10.93
2019-04-26T07:06:36.423Z,9.93
2019-04-26T07:09:09.341Z,9.90
2019-04-26T07:11:48.166Z,8.90
2019-04-26T07:14:29.166Z,10.47
2019-04-26T07:16:59.267Z,8.93
2019-04-26T07:19:30.463Z,10.83
2019-04-26T07:22:17.505Z,9.37
2019-04-26T07:25:06.023Z,10.03
2019-04-26T07:28:03.236Z,8.63
2019-04-26T07:30:21.968Z,9.40
2019-04-26T07:33:04.107Z,10.73
2019-04-26T07:35:39.367Z,8.50
2019-04-26T07:38:11.013Z,11.70
2019-04-26T07:40:56.182Z,9.20
2019-04-26T07:43:26.849Z,11.23
2019-04-26T07:46:12.852Z,9.43
2019-04-26T07:48:47.817Z,10.40
2019-04-26T07:51:16.810Z,10.17
2019-04-26T07:54:00.891Z,10.53
2019-04-26T07:56:29.905Z,9.50
2019-04-26T07:59:08.814Z,8.47
2019-04-26T08:01:42.212Z,9.73
2019-04-26T08:04:13.781Z,12.23
2019-04-26T08:06:50.818Z,10.30
2019-04-26T08:09:26.775Z,10.73
2019-04-26T08:11:50.406Z,9.27
2019-04-26T08:14:19.550Z,8.77
2019-04-26T08:17:14.849Z,9.80
2019-04-26T08:19:44.025Z,15.07
2019-04-26T08:22:20.470Z,15.03
2019-04-26T08:24:44.161Z,9.63
2019-04-26T08:27:23.700Z,8.00
2019-04-26T08:29:49.573Z,8.53
2019-04-26T08:32:20.156Z,8.60
2019-04-26T08:34:58.267Z,8.07
2019-04-26T08:37:36.486Z,8.23
2019-04-26T08:40:05.078Z,7.43
2019-04-26T08:42:34.978Z,7.50
2019-04-26T08:45:13.755Z,7.53
2019-04-26T08:47:46.073Z,12.03
2019-04-26T08:50:34.360Z,9.00
2019-04-26T08:53:02.522Z,8.63
2019-04-26T08:55:31.516Z,10.10
2019-04-26T08:58:00.491Z,9.70
2019-04-26T09:00:39.676Z,9.37
2019-04-26T09:03:19.268Z,9.43
2019-04-26T09:06:01.279Z,10.37
2019-04-26T09:08:30.235Z,16.17
2019-04-26T09:10:59.278Z,7.57
2019-04-26T09:13:28.297Z,7.30
2019-04-26T09:16:03.366Z,8.13
2019-04-26T09:18:42.401Z,7.97
2019-04-26T09:20:59.942Z,8.13
2019-04-26T09:23:40.301Z,7.20
2019-04-26T09:26:12.532Z,7.53
2019-04-26T09:28:57.577Z,7.50
2019-04-26T09:31:26.724Z,8.37
2019-04-26T09:33:55.732Z,8.80
2019-04-26T09:36:23.117Z,8.93
2019-04-26T09:38:50.525Z,8.47
2019-04-26T09:41:17.912Z,9.33
2019-04-26T09:43:58.755Z,10.37
2019-04-26T09:46:35.555Z,7.83
2019-04-26T09:49:20.831Z,8.10
2019-04-26T09:51:48.204Z,9.67
2019-04-26T09:54:15.628Z,9.13
2019-04-26T09:56:43.080Z,8.10
2019-04-26T09:59:10.455Z,8.07
2019-04-26T10:01:37.948Z,9.03
2019-04-26T10:04:05.405Z,10.23
2019-04-26T10:06:32.816Z,7.67
2019-04-26T10:09:00.184Z,10.30
2019-04-26T10:11:29.222Z,12.87
2019-04-26T10:13:58.269Z,13.60
2019-04-26T10:16:33.595Z,8.47
2019-04-26T10:19:01.099Z,8.50
2019-04-26T10:21:28.543Z,6.97
2019-04-26T10:23:55.957Z,7.63
2019-04-26T10:26:27.738Z,7.63
2019-04-26T10:28:52.502Z,8.47
2019-04-26T10:31:20.071Z,7.63
2019-04-26T10:33:47.437Z,8.03
2019-04-26T10:36:14.842Z,7.47
2019-04-26T10:38:42.214Z,8.00
2019-04-26T10:41:10.136Z,7.63
2019-04-26T10:43:37.501Z,8.10
2019-04-26T10:46:04.980Z,7.50
2019-04-26T10:48:33.318Z,7.73
2019-04-26T10:51:03.256Z,6.87
2019-04-26T10:53:50.409Z,8.73
2019-04-26T10:56:37.581Z,7.77
2019-04-26T10:59:15.606Z,8.50
2019-04-26T11:01:43.527Z,7.53
2019-04-26T11:04:10.898Z,7.53
2019-04-26T11:06:38.403Z,7.33
2019-04-26T11:09:06.669Z,8.17
2019-04-26T11:11:34.651Z,10.47
2019-04-26T11:14:02.100Z,11.07
2019-04-26T11:16:29.505Z,10.70
2019-04-26T11:18:57.220Z,6.90
2019-04-26T11:21:26.023Z,7.60
2019-04-26T11:23:53.505Z,7.63
2019-04-26T11:26:20.873Z,8.37
2019-04-26T11:28:51.372Z,8.07
2019-04-26T11:31:17.384Z,6.80
2019-04-26T11:33:45.381Z,7.23
2019-04-26T11:36:14.023Z,7.17
2019-04-26T11:38:41.564Z,7.10
2019-04-26T11:41:09.044Z,6.47
2019-04-26T11:43:36.682Z,6.47
2019-04-26T11:46:04.891Z,7.23
2019-04-26T11:48:32.621Z,7.57
2019-04-26T11:51:00.038Z,6.70
2019-04-26T11:53:27.486Z,6.20
2019-04-26T11:55:54.894Z,6.20
2019-04-26T11:58:23.601Z,5.80
2019-04-26T12:00:52.931Z,6.70
2019-04-26T12:03:21.265Z,9.77
2019-04-26T12:05:59.932Z,5.90
2019-04-26T12:08:31.618Z,7.40
2019-04-26T12:10:59.029Z,8.00
2019-04-26T12:13:26.670Z,6.93
2019-04-26T12:15:54.472Z,6.00
2019-04-26T12:18:21.925Z,5.77
2019-04-26T12:20:49.419Z,6.90
2019-04-26T12:23:20.831Z,6.00
2019-04-26T12:25:48.089Z,7.13
2019-04-26T12:28:15.057Z,5.83
2019-04-26T12:30:42.460Z,5.17
2019-04-26T12:33:09.874Z,6.17
2019-04-26T12:35:37.347Z,5.30
2019-04-26T12:38:04.751Z,6.20
2019-04-26T12:40:32.141Z,5.83
2019-04-26T12:42:59.576Z,5.53
2019-04-26T12:45:47.353Z,5.60
2019-04-26T12:48:16.812Z,4.93
2019-04-26T12:50:44.518Z,4.03
2019-04-26T12:53:11.930Z,4.30
2019-04-26T12:55:39.338Z,5.23
2019-04-26T12:58:06.738Z,4.37
2019-04-26T13:00:37.491Z,3.90
2019-04-26T13:03:04.891Z,4.23
2019-04-26T13:05:35.623Z,4.13
2019-04-26T13:08:03.125Z,4.80
2019-04-26T13:10:44.956Z,4.47
2019-04-26T13:13:23.151Z,4.23
2019-04-26T13:15:58.446Z,4.30
2019-04-26T13:18:25.915Z,3.00
2019-04-26T13:20:53.553Z,3.97
2019-04-26T13:23:20.918Z,3.83
2019-04-26T13:25:48.327Z,4.17
2019-04-26T13:28:19.769Z,3.80
2019-04-26T13:30:44.976Z,3.37
2019-04-26T13:33:12.506Z,3.43
2019-04-26T13:35:41.288Z,4.03
2019-04-26T13:38:10.030Z,2.83
2019-04-26T13:40:40.199Z,4.97
2019-04-26T13:43:07.956Z,3.37
2019-04-26T13:45:43.121Z,3.60
2019-04-26T13:48:28.586Z,3.07
2019-04-26T13:51:06.767Z,3.10
2019-04-26T13:53:34.157Z,2.90
2019-04-26T13:56:02.284Z,3.00
2019-04-26T13:58:33.853Z,2.77
2019-04-26T14:01:01.530Z,3.30
2019-04-26T14:03:31.648Z,3.03
2019-04-26T14:05:58.020Z,3.30
2019-04-26T14:08:25.392Z,3.00
2019-04-26T14:10:52.799Z,2.63
2019-04-26T14:13:20.649Z,2.87
2019-04-26T14:15:51.860Z,3.60
2019-04-26T14:18:18.457Z,2.60
2019-04-26T14:20:45.930Z,2.77
2019-04-26T14:23:27.077Z,3.43
2019-04-26T14:25:56.097Z,3.27
2019-04-26T14:28:25.281Z,2.77
2019-04-26T14:30:52.868Z,3.37
2019-04-26T14:33:20.489Z,2.67
2019-04-26T14:35:50.730Z,3.17
2019-04-26T14:38:27.230Z,3.43
2019-04-26T14:40:46.250Z,2.67
2019-04-26T14:43:13.673Z,2.93
2019-04-26T14:45:41.448Z,2.37
2019-04-26T14:48:20.134Z,3.03
2019-04-26T14:50:38.037Z,2.50
2019-04-26T14:53:05.403Z,2.27
2019-04-26T14:55:32.813Z,2.87
2019-04-26T14:58:01.958Z,2.70
2019-04-26T15:00:31.041Z,3.10
2019-04-26T15:03:17.296Z,2.53
2019-04-26T15:05:54.065Z,2.60
2019-04-26T15:08:22.612Z,2.43
2019-04-26T15:11:00.164Z,3.00
2019-04-26T15:13:21.023Z,3.47
2019-04-26T15:15:48.359Z,3.00
2019-04-26T15:18:15.818Z,2.60
2019-04-26T15:20:43.331Z,2.63
2019-04-26T15:23:10.709Z,3.20
2019-04-26T15:25:41.363Z,3.10
2019-04-26T15:28:12.075Z,3.03
2019-04-26T15:30:43.189Z,3.40
2019-04-26T15:33:08.893Z,3.60
2019-04-26T15:35:35.895Z,2.30
2019-04-26T15:38:03.438Z,3.07
2019-04-26T15:40:42.512Z,2.73
2019-04-26T15:43:16.047Z,2.40
2019-04-26T15:45:52.543Z,4.20
2019-04-26T15:48:39.081Z,2.70
2019-04-26T15:51:06.470Z,2.60
2019-04-26T15:53:33.939Z,2.97
2019-04-26T15:56:02.553Z,4.50
2019-04-26T15:58:30.119Z,3.00
2019-04-26T16:00:57.574Z,2.87
2019-04-26T16:03:25.033Z,3.33
2019-04-26T16:05:52.426Z,3.40
2019-04-26T16:08:19.823Z,2.80
2019-04-26T16:10:47.211Z,3.50
2019-04-26T16:13:18.684Z,3.87
2019-04-26T16:15:48.772Z,3.77
2019-04-26T16:18:17.012Z,3.10
2019-04-26T16:20:42.851Z,2.90
2019-04-26T16:23:13.372Z,2.70
2019-04-26T16:25:40.248Z,3.00
2019-04-26T16:28:25.681Z,3.80
2019-04-26T16:31:02.503Z,2.97
2019-04-26T16:33:33.508Z,3.00
2019-04-26T16:36:02.678Z,2.63
2019-04-26T16:38:34.260Z,4.13
2019-04-26T16:41:03.288Z,3.47
2019-04-26T16:43:39.617Z,2.93
2019-04-26T16:46:00.066Z,3.23
2019-04-26T16:48:27.720Z,4.17
2019-04-26T16:50:55.094Z,3.10
2019-04-26T16:53:39.771Z,3.10
2019-04-26T16:55:53.301Z,3.57
2019-04-26T16:58:20.879Z,3.10
2019-04-26T17:00:54.738Z,3.53
2019-04-26T17:03:17.471Z,3.47
2019-04-26T17:05:48.339Z,3.03
2019-04-26T17:08:19.006Z,3.17
2019-04-26T17:10:43.110Z,2.93
2019-04-26T17:13:10.565Z,4.17
2019-04-26T17:15:37.942Z,3.30
2019-04-26T17:18:05.354Z,3.00
2019-04-26T17:20:33.976Z,3.43
2019-04-26T17:23:08.680Z,2.97
2019-04-26T17:25:37.705Z,3.27
2019-04-26T17:28:05.201Z,2.80
2019-04-26T17:30:40.767Z,3.17
2019-04-26T17:33:02.977Z,3.10
2019-04-26T17:35:30.668Z,2.70
2019-04-26T17:38:01.975Z,3.27
2019-04-26T17:40:30.142Z,2.73
2019-04-26T17:42:56.356Z,2.47
2019-04-26T17:45:23.713Z,3.20
2019-04-26T17:47:53.003Z,3.10
2019-04-26T17:50:20.574Z,3.03
2019-04-26T17:52:48.054Z,2.30
2019-04-26T17:55:15.449Z,3.63
2019-04-26T17:57:48.382Z,2.40
2019-04-26T18:00:15.405Z,2.90
2019-04-26T18:02:47.542Z,2.40
2019-04-26T18:05:10.791Z,2.60
2019-04-26T18:07:44.254Z,2.40
2019-04-26T18:10:10.416Z,3.43
2019-04-26T18:12:40.694Z,3.70
2019-04-26T18:15:11.510Z,2.90
2019-04-26T18:17:40.159Z,2.50
2019-04-26T18:20:17.947Z,2.90
2019-04-26T18:22:52.428Z,2.77
2019-04-26T18:25:19.797Z,2.53
2019-04-26T18:27:47.187Z,2.87
2019-04-26T18:30:14.914Z,3.03
2019-04-26T18:32:47.538Z,2.80
2019-04-26T18:35:15.218Z,2.57
2019-04-26T18:37:42.586Z,2.43
2019-04-26T18:40:09.963Z,2.33
2019-04-26T18:42:41.468Z,2.60
2019-04-26T18:45:06.918Z,2.73
2019-04-26T18:47:35.981Z,2.30
2019-04-26T18:50:04.581Z,3.33
2019-04-26T18:52:33.742Z,2.90
2019-04-26T18:55:05.520Z,2.40
2019-04-26T18:57:33.170Z,2.67
2019-04-26T19:00:01.007Z,2.60
2019-04-26T19:02:28.511Z,2.47
2019-04-26T19:04:55.939Z,2.50
2019-04-26T19:07:32.029Z,2.67
2019-04-26T19:10:03.387Z,3.10
2019-04-26T19:12:23.379Z,2.60
2019-04-26T19:15:02.972Z,2.50
2019-04-26T19:17:26.064Z,2.60
2019-04-26T19:19:53.992Z,2.33
2019-04-26T19:22:22.566Z,2.70
2019-04-26T19:24:55.864Z,2.40
2019-04-26T19:27:22.404Z,2.70
2019-04-26T19:29:48.373Z,2.20
2019-04-26T19:32:15.770Z,3.13
2019-04-26T19:34:43.134Z,2.57
2019-04-26T19:37:10.543Z,2.90
2019-04-26T19:39:37.956Z,2.87
2019-04-26T19:42:06.203Z,2.80
2019-04-26T19:44:33.884Z,2.97
2019-04-26T19:47:06.553Z,2.73
2019-04-26T19:49:49.967Z,2.90
2019-04-26T19:52:39.608Z,2.77
2019-04-26T19:55:25.094Z,2.77
2019-04-26T19:58:01.818Z,3.00
2019-04-26T20:00:29.181Z,3.43
2019-04-26T20:02:56.632Z,2.80
2019-04-26T20:05:24.004Z,2.90
2019-04-26T20:07:51.864Z,2.60
2019-04-26T20:10:19.482Z,2.90
2019-04-26T20:12:46.882Z,3.00
2019-04-26T20:15:25.418Z,3.47
2019-04-26T20:17:43.380Z,4.00
2019-04-26T20:20:19.029Z,3.37
2019-04-26T20:22:42.016Z,4.10
2019-04-26T20:25:09.367Z,4.43
2019-04-26T20:27:36.749Z,4.40
2019-04-26T20:30:07.137Z,4.17
2019-04-26T20:32:36.200Z,4.57
2019-04-26T20:35:06.460Z,4.23
2019-04-26T20:37:33.928Z,5.13
2019-04-26T20:40:17.563Z,4.13
2019-04-26T20:42:31.648Z,4.97
2019-04-26T20:44:59.154Z,4.43
2019-04-26T20:47:26.539Z,4.40
2019-04-26T20:50:00.622Z,4.93
2019-04-26T20:52:24.884Z,5.10
2019-04-26T20:54:54.123Z,4.60
2019-04-26T20:57:21.924Z,4.30
2019-04-26T20:59:52.096Z,4.20
2019-04-26T21:02:20.678Z,4.50
2019-04-26T21:04:47.701Z,5.30
2019-04-26T21:07:15.148Z,4.97
2019-04-26T21:09:43.495Z,5.23
2019-04-26T21:12:15.903Z,4.37
2019-04-26T21:14:44.556Z,4.50
2019-04-26T21:17:09.272Z,4.60
2019-04-26T21:19:36.806Z,4.93
2019-04-26T21:22:04.178Z,4.83
2019-04-26T21:24:33.213Z,5.50
2019-04-26T21:27:04.941Z,5.67
2019-04-26T21:29:33.957Z,4.90
2019-04-26T21:32:20.456Z,5.37
2019-04-26T21:34:52.300Z,6.17
2019-04-26T21:37:24.210Z,5.10
2019-04-26T21:39:56.175Z,6.13
2019-04-26T21:42:25.868Z,6.17
2019-04-26T21:44:54.925Z,5.57
2019-04-26T21:47:23.193Z,5.00
2019-04-26T21:49:54.045Z,5.90
2019-04-26T21:52:21.414Z,5.83
2019-04-26T21:54:53.166Z,5.60
2019-04-26T21:57:25.102Z,6.33
2019-04-26T21:59:47.793Z,6.00
2019-04-26T22:02:15.621Z,6.77
2019-04-26T22:04:43.602Z,5.70
2019-04-26T22:07:11.139Z,7.07
2019-04-26T22:09:40.194Z,6.93
2019-04-26T22:12:09.211Z,7.50
2019-04-26T22:14:38.253Z,9.03
2019-04-26T22:17:10.025Z,8.80
2019-04-26T22:19:44.731Z,9.43
2019-04-26T22:22:30.199Z,10.93
2019-04-26T22:24:59.284Z,10.20
2019-04-26T22:27:26.672Z,10.63
2019-04-26T22:29:55.068Z,11.97
2019-04-26T22:32:22.998Z,10.93
2019-04-26T22:34:50.553Z,11.77
2019-04-26T22:37:29.250Z,10.90
2019-04-26T22:39:47.065Z,11.77
2019-04-26T22:42:14.478Z,11.80
2019-04-26T22:44:46.258Z,13.47
2019-04-26T22:47:33.972Z,14.33
2019-04-26T22:50:00.807Z,14.97
2019-04-26T22:52:28.224Z,14.13
2019-04-26T22:54:55.644Z,16.13
2019-04-26T22:57:23.290Z,17.97
2019-04-26T22:59:51.004Z,17.97
2019-04-26T23:02:25.377Z,15.73
2019-04-26T23:04:48.488Z,16.00
2019-04-26T23:07:18.514Z,13.67
2019-04-26T23:09:52.046Z,14.87
2019-04-26T23:12:28.925Z,14.37
2019-04-26T23:14:57.985Z,15.13
2019-04-26T23:17:43.953Z,12.70
2019-04-26T23:20:13.151Z,11.70
2019-04-26T23:22:40.606Z,9.77
2019-04-26T23:25:07.974Z,9.97
2019-04-26T23:27:35.407Z,8.80
2019-04-26T23:30:03.890Z,6.90
2019-04-26T23:32:31.479Z,7.73
2019-04-26T23:35:04.573Z,7.30
2019-04-26T23:37:27.965Z,7.50
2019-04-26T23:39:55.344Z,7.20
2019-04-26T23:42:23.254Z,7.67
2019-04-26T23:44:51.909Z,7.93
2019-04-26T23:47:23.084Z,7.77
2019-04-26T23:49:49.429Z,7.73
2019-04-26T23:52:18.670Z,8.87
2019-04-26T23:54:46.235Z,9.53
2019-04-26T23:57:13.876Z,9.10
2019-04-26T23:59:41.378Z,9.77
